Time;durP1;ratioP1;P1;durP2;ratioP2;P2;SDS_P1;SDS_P2;PMS_P1;PMS_P2;Temp;Humidity;BMP_temperature;BMP_pressure;BME280_temperature;BME280_humidity;BME280_pressure;Samples;Min_cycle;Max_cycle;Signal;HPM_P1;HPM_P2
2022/01/13 00:01:02;;;;;;;9.15;6.18;;;;;;;6.39;49.01;101246.94;5094082;28;20036;-68
2022/01/13 00:03:27;;;;;;;7.25;3.80;;;;;;;6.23;49.80;101266.63;5092259;28;20060;-69
2022/01/13 00:05:53;;;;;;;7.80;4.47;;;;;;;6.13;49.55;101230.91;5092935;28;20036;-70
2022/01/13 00:08:18;;;;;;;7.20;4.43;;;;;;;6.33;49.14;101250.94;5092755;28;20127;-70
2022/01/13 00:10:44;;;;;;;5.75;3.25;;;;;;;6.39;49.05;101261.59;5093420;28;20118;-69
2022/01/13 00:13:13;;;;;;;8.50;3.40;;;;;;;6.27;49.55;101270.38;5092675;28;20024;-70
2022/01/13 00:18:16;;;;;;;4.07;2.83;;;;;;;6.17;50.43;101259.53;5093640;28;20039;-70
2022/01/13 00:26:01;;;;;;;;;;;;;;;6.07;52.41;101267.19;5093989;28;20039;-67
2022/01/13 00:28:28;;;;;;;6.25;4.10;;;;;;;6.14;51.09;101260.16;5092466;28;19915;-67
2022/01/13 00:30:56;;;;;;;6.75;3.80;;;;;;;6.06;50.96;101257.28;5092411;28;20024;-68
2022/01/13 00:33:26;;;;;;;7.97;4.38;;;;;;;5.90;51.70;101242.91;5092647;28;20023;-68
2022/01/13 00:35:59;;;;;;;5.15;2.92;;;;;;;5.83;51.31;101279.22;5092348;28;20028;-68
2022/01/13 00:38:29;;;;;;;9.55;4.20;;;;;;;6.03;51.51;101272.53;5093797;28;20028;-68
2022/01/13 00:40:55;;;;;;;6.20;4.32;;;;;;;5.80;52.93;101266.00;5093751;28;20032;-68
2022/01/13 00:43:21;;;;;;;7.10;3.95;;;;;;;5.68;54.07;101258.22;5092571;28;20477;-68
2022/01/13 00:45:48;;;;;;;9.10;3.83;;;;;;;5.66;53.60;101257.72;5092244;28;20081;-68
2022/01/13 00:48:14;;;;;;;7.05;3.13;;;;;;;5.76;53.38;101268.59;5093277;28;20024;-68
2022/01/13 00:50:40;;;;;;;7.00;2.92;;;;;;;5.72;53.99;101263.97;5092284;28;20028;-68
2022/01/13 00:53:06;;;;;;;5.28;2.80;;;;;;;5.67;54.53;101277.88;5091886;28;20024;-68
2022/01/13 00:55:45;;;;;;;5.15;2.58;;;;;;;5.62;54.58;101281.53;5092312;28;20465;-68
2022/01/13 00:58:10;;;;;;;8.23;2.65;;;;;;;5.81;53.91;101294.47;5093449;28;20020;-69
2022/01/13 01:00:36;;;;;;;5.88;3.40;;;;;;;5.90;53.47;101292.63;5092087;28;20355;-69
2022/01/13 01:03:02;;;;;;;5.78;2.78;;;;;;;5.75;54.10;101272.47;5092677;28;20032;-69
2022/01/13 01:05:27;;;;;;;6.03;3.08;;;;;;;5.86;54.15;101295.22;5093181;28;20481;-69
2022/01/13 01:07:53;;;;;;;4.00;2.85;;;;;;;5.86;54.07;101286.06;5093006;28;20024;-68
2022/01/13 01:10:20;;;;;;;6.45;3.22;;;;;;;5.61;54.47;101266.09;5092598;28;20386;-68
2022/01/13 01:12:46;;;;;;;7.10;3.63;;;;;;;5.68;55.35;101296.88;5092146;28;20031;-69
2022/01/13 01:15:15;;;;;;;6.50;3.38;;;;;;;5.78;53.22;101285.66;5095470;28;20498;-68
2022/01/13 01:17:46;;;;;;;6.47;4.38;;;;;;;5.61;53.36;101246.75;5096297;28;20423;-69
2022/01/13 01:20:13;;;;;;;6.20;3.67;;;;;;;5.86;54.62;101283.31;5095905;28;20166;-68
2022/01/13 01:22:55;;;;;;;6.85;2.92;;;;;;;5.79;53.78;101303.88;5097191;28;20031;-69
2022/01/13 01:25:47;;;;;;;6.88;3.08;;;;;;;5.69;53.63;101290.22;5095728;28;20024;-68
2022/01/13 01:28:14;;;;;;;4.35;3.05;;;;;;;5.63;53.93;101296.97;5096669;28;20032;-68
2022/01/13 01:30:43;;;;;;;4.82;2.47;;;;;;;5.50;55.58;101295.81;5097080;28;20016;-68
2022/01/13 01:33:13;;;;;;;6.70;2.70;;;;;;;5.43;55.41;101300.06;5096745;28;20103;-68
2022/01/13 01:35:39;;;;;;;5.65;2.83;;;;;;;5.29;56.15;101293.69;5095624;28;20057;-69
2022/01/13 01:38:04;;;;;;;5.53;2.60;;;;;;;5.37;55.26;101306.78;5095697;28;20028;-68
2022/01/13 01:40:30;;;;;;;3.67;2.90;;;;;;;5.26;56.70;101284.88;5095636;28;20047;-68
2022/01/13 01:42:56;;;;;;;6.53;2.58;;;;;;;5.19;56.58;101300.19;5096585;28;20478;-68
2022/01/13 01:45:22;;;;;;;8.63;3.30;;;;;;;5.16;56.87;101301.59;5096072;28;20027;-68
2022/01/13 01:47:51;;;;;;;5.30;2.45;;;;;;;5.20;57.27;101312.84;5095693;28;20397;-68
2022/01/13 01:50:20;;;;;;;5.40;2.83;;;;;;;5.21;58.05;101317.25;5097030;28;20462;-69
2022/01/13 01:52:53;;;;;;;3.97;2.70;;;;;;;5.29;56.58;101327.63;5095584;28;20031;-69
2022/01/13 01:55:20;;;;;;;5.63;3.40;;;;;;;5.25;55.83;101308.09;5095343;28;20474;-68
2022/01/13 01:57:49;;;;;;;5.20;2.90;;;;;;;5.18;56.34;101318.69;5095204;28;20470;-68
2022/01/13 02:00:18;;;;;;;8.52;2.90;;;;;;;5.06;57.23;101311.97;5096787;28;20028;-68
2022/01/13 02:02:44;;;;;;;5.75;2.88;;;;;;;4.95;56.92;101309.38;5095080;28;20085;-68
2022/01/13 02:05:10;;;;;;;5.65;2.58;;;;;;;4.98;57.84;101307.94;5095057;28;20056;-68
2022/01/13 02:07:38;;;;;;;5.65;3.13;;;;;;;4.73;56.70;101276.03;5096093;28;20024;-69
2022/01/13 02:10:04;;;;;;;6.03;3.42;;;;;;;4.90;56.91;101300.31;5096330;28;20032;-68
2022/01/13 02:12:35;;;;;;;4.13;2.50;;;;;;;4.96;56.71;101301.91;5096332;28;20351;-67
2022/01/13 02:17:40;;;;;;;5.85;2.38;;;;;;;5.09;54.16;101306.69;5096138;28;20039;-67
2022/01/13 02:20:07;;;;;;;6.15;3.10;;;;;;;5.15;53.47;101312.94;5095573;28;20455;-68
2022/01/13 02:22:33;;;;;;;4.20;2.33;;;;;;;5.20;52.77;101299.88;5094783;28;20032;-68
2022/01/13 02:24:59;;;;;;;5.93;2.63;;;;;;;5.11;53.25;101304.44;5095670;28;20028;-68
2022/01/13 02:27:25;;;;;;;3.20;2.03;;;;;;;4.99;52.22;101309.59;5095597;28;20035;-68
2022/01/13 02:29:51;;;;;;;5.53;2.65;;;;;;;5.09;52.77;101316.88;5094693;28;20503;-67
2022/01/13 02:32:17;;;;;;;6.35;2.67;;;;;;;4.95;54.63;101303.88;5094799;28;20039;-68
2022/01/13 02:34:43;;;;;;;3.30;2.55;;;;;;;4.86;54.09;101307.56;5094582;28;20044;-68
2022/01/13 02:37:10;;;;;;;4.10;2.10;;;;;;;4.84;54.17;101318.88;5094431;28;20089;-68
2022/01/13 02:39:35;;;;;;;4.15;2.30;;;;;;;4.93;52.23;101314.34;5094490;28;20050;-69
2022/01/13 02:42:04;;;;;;;3.63;2.38;;;;;;;5.00;51.38;101312.03;5094107;28;20514;-68
2022/01/13 02:44:31;;;;;;;4.40;2.75;;;;;;;5.07;50.69;101308.09;5094364;28;20028;-67
2022/01/13 02:47:09;;;;;;;4.80;2.60;;;;;;;5.12;50.34;101311.59;5094240;28;20032;-68
2022/01/13 02:49:35;;;;;;;5.43;2.65;;;;;;;5.10;50.30;101313.81;5095242;28;20031;-68
2022/01/13 02:52:02;;;;;;;5.13;2.63;;;;;;;5.09;50.02;101309.44;5094229;28;20432;-68
2022/01/13 02:54:29;;;;;;;7.68;2.17;;;;;;;5.16;49.23;101307.09;5094447;28;20025;-68
2022/01/13 02:56:54;;;;;;;5.82;2.47;;;;;;;5.03;50.26;101310.63;5094152;28;20031;-69
2022/01/13 02:59:20;;;;;;;7.03;2.40;;;;;;;4.91;49.98;101282.69;5095040;28;20024;-68
2022/01/13 03:01:46;;;;;;;2.75;2.00;;;;;;;5.08;50.18;101296.75;5093950;28;20097;-69
2022/01/13 03:04:11;;;;;;;4.65;3.65;;;;;;;4.96;50.82;101299.16;5095312;28;20038;-69
2022/01/13 03:06:39;;;;;;;3.85;2.30;;;;;;;5.02;49.93;101300.72;5093855;28;20103;-67
2022/01/13 03:09:08;;;;;;;7.65;2.90;;;;;;;4.97;50.71;101298.03;5095608;28;20050;-68
2022/01/13 03:11:36;;;;;;;9.38;2.75;;;;;;;4.94;50.50;101304.13;5094180;28;20090;-69
2022/01/13 03:14:04;;;;;;;4.25;2.65;;;;;;;4.88;50.51;101310.84;5095011;28;20051;-68
2022/01/13 03:16:30;;;;;;;23.60;11.02;;;;;;;4.86;49.78;101305.63;5093550;28;20031;-68
2022/01/13 03:18:56;;;;;;;150.00;60.58;;;;;;;4.71;50.11;101281.84;5093938;28;20078;-67
2022/01/13 03:21:22;;;;;;;279.02;106.00;;;;;;;4.93;49.89;101310.78;5093558;28;20028;-68
2022/01/13 03:23:49;;;;;;;146.80;58.95;;;;;;;4.90;49.86;101322.38;5093551;28;20118;-67
2022/01/13 03:26:15;;;;;;;124.50;53.92;;;;;;;4.88;50.05;101313.59;5095139;28;20518;-68
2022/01/13 03:29:05;;;;;;;68.90;39.38;;;;;;;4.92;49.66;101315.47;5093438;28;20126;-67
2022/01/13 03:31:31;;;;;;;50.13;31.58;;;;;;;4.91;49.37;101313.03;5093411;28;20028;-68
2022/01/13 03:33:57;;;;;;;33.28;21.00;;;;;;;4.97;48.70;101311.81;5093207;28;20066;-70
2022/01/13 03:36:23;;;;;;;23.63;15.77;;;;;;;4.95;48.91;101311.28;5093216;28;20032;-68
2022/01/13 03:38:48;;;;;;;32.90;24.05;;;;;;;4.73;48.94;101282.34;5093254;28;20114;-68
2022/01/13 03:41:14;;;;;;;23.48;16.30;;;;;;;4.85;50.07;101308.69;5093064;28;20039;-67
2022/01/13 03:43:40;;;;;;;19.40;13.25;;;;;;;4.88;49.49;101305.31;5093592;28;20489;-70
2022/01/13 03:46:09;;;;;;;20.60;13.15;;;;;;;4.90;49.21;101309.44;5093614;28;20027;-69
2022/01/13 03:48:34;;;;;;;13.93;8.30;;;;;;;4.92;48.77;101309.16;5093551;28;20143;-67
2022/01/13 03:51:00;;;;;;;10.52;5.10;;;;;;;4.89;48.72;101296.75;5094264;28;20057;-68
2022/01/13 03:53:28;;;;;;;7.60;4.65;;;;;;;4.81;48.31;101272.63;5093788;28;20032;-70
2022/01/13 03:56:25;;;;;;;6.55;3.92;;;;;;;5.03;47.79;101298.78;5093071;28;20036;-70
2022/01/13 03:59:27;;;;;;;4.38;2.75;;;;;;;5.01;46.87;101304.59;5092862;28;20058;-70
2022/01/13 04:01:59;;;;;;;6.45;3.75;;;;;;;5.10;46.67;101313.81;5092866;28;20032;-68
2022/01/13 04:04:25;;;;;;;9.40;4.05;;;;;;;5.11;46.67;101301.66;5094128;28;20070;-68
2022/01/13 04:07:07;;;;;;;7.35;3.22;;;;;;;5.18;46.29;101315.09;5092907;28;20028;-68
2022/01/13 04:09:33;;;;;;;5.90;2.80;;;;;;;5.11;46.88;101309.13;5092809;28;20036;-67
2022/01/13 04:12:03;;;;;;;6.32;2.45;;;;;;;5.13;46.30;101313.25;5092953;28;20043;-68
2022/01/13 04:14:37;;;;;;;5.00;2.20;;;;;;;5.14;46.42;101322.34;5092441;28;20486;-70
2022/01/13 04:17:03;;;;;;;2.60;2.30;;;;;;;5.20;46.11;101329.41;5092709;28;20467;-70
2022/01/13 04:19:29;;;;;;;8.00;2.33;;;;;;;5.19;46.10;101331.34;5092540;28;20086;-69
2022/01/13 04:21:55;;;;;;;2.85;1.98;;;;;;;5.02;47.25;101338.53;5092610;28;20016;-69
2022/01/13 04:24:20;;;;;;;3.88;1.85;;;;;;;5.16;47.44;101351.25;5092576;28;20035;-69
2022/01/13 04:26:46;;;;;;;7.47;2.88;;;;;;;5.09;47.78;101345.28;5092861;28;20024;-69
2022/01/13 04:31:39;;;;;;;5.60;2.50;;;;;;;5.06;47.64;101345.06;5093803;28;20032;-68
2022/01/13 04:34:05;;;;;;;13.25;2.60;;;;;;;4.98;47.38;101333.59;5093713;28;20027;-68
2022/01/13 04:36:30;;;;;;;4.00;2.70;;;;;;;4.93;48.19;101343.88;5092482;28;20024;-68
2022/01/13 04:38:56;;;;;;;13.23;8.05;;;;;;;4.87;47.78;101342.31;5092311;28;20052;-68
2022/01/13 04:41:35;;;;;;;6.40;4.47;;;;;;;4.98;47.63;101343.81;5092343;28;20027;-67
2022/01/13 04:44:04;;;;;;;7.35;4.15;;;;;;;4.93;47.85;101341.13;5092346;28;20020;-68
2022/01/13 04:46:30;;;;;;;8.25;3.05;;;;;;;4.90;47.48;101330.66;5092382;28;20048;-68
2022/01/13 04:48:56;;;;;;;3.33;2.40;;;;;;;5.04;47.49;101345.38;5095152;28;20109;-69
2022/01/13 04:51:21;;;;;;;8.25;2.70;;;;;;;4.94;47.23;101356.53;5096624;28;20031;-68
2022/01/13 04:53:47;;;;;;;5.45;2.58;;;;;;;4.95;47.75;101360.94;5096491;28;20421;-69
2022/01/13 04:56:25;;;;;;;5.07;2.55;;;;;;;4.94;47.94;101364.81;5096429;28;20034;-70
2022/01/13 04:58:51;;;;;;;6.57;2.20;;;;;;;4.75;47.16;101373.06;5096278;28;20101;-67
2022/01/13 05:01:16;;;;;;;5.78;3.13;;;;;;;4.86;48.38;101379.28;5096432;28;20466;-68
2022/01/13 05:03:42;;;;;;;5.03;2.60;;;;;;;4.86;47.66;101374.56;5096575;28;20474;-68
2022/01/13 05:06:08;;;;;;;6.43;2.72;;;;;;;4.60;50.09;101357.53;5096485;28;20401;-68
2022/01/13 05:08:34;;;;;;;7.03;2.67;;;;;;;4.75;49.51;101378.59;5097250;28;20024;-68
2022/01/13 05:11:00;;;;;;;5.90;2.50;;;;;;;4.69;49.43;101380.59;5096079;28;20028;-68
2022/01/13 05:13:25;;;;;;;7.15;2.35;;;;;;;4.70;49.09;101376.72;5095732;28;20052;-69
2022/01/13 05:15:53;;;;;;;5.45;2.55;;;;;;;4.76;49.05;101394.00;5096034;28;20032;-68
2022/01/13 05:21:06;;;;;;;4.72;2.25;;;;;;;4.62;49.90;101396.63;5097843;28;20035;-68
2022/01/13 05:23:32;;;;;;;5.70;2.20;;;;;;;4.61;49.49;101389.50;5096263;28;20436;-69
2022/01/13 05:25:59;;;;;;;5.93;2.80;;;;;;;4.67;49.20;101396.59;5095929;28;20020;-67
2022/01/13 05:28:25;;;;;;;4.88;2.88;;;;;;;4.62;48.71;101399.41;5096449;28;20020;-70
2022/01/13 05:30:51;;;;;;;5.32;2.03;;;;;;;4.62;48.61;101395.81;5095900;28;20490;-69
2022/01/13 05:33:16;;;;;;;3.95;2.00;;;;;;;4.68;48.66;101394.66;5096782;28;20058;-67
2022/01/13 05:35:42;;;;;;;6.28;2.47;;;;;;;4.71;49.00;101405.91;5095747;28;20056;-68
2022/01/13 05:38:09;;;;;;;3.47;2.60;;;;;;;4.67;48.69;101402.09;5095682;28;20028;-68
2022/01/13 05:40:36;;;;;;;5.63;2.33;;;;;;;4.71;48.80;101416.94;5095949;28;20078;-68
2022/01/13 05:43:04;;;;;;;3.53;1.92;;;;;;;4.79;48.39;101411.88;5096474;28;20028;-68
2022/01/13 05:45:32;;;;;;;5.65;2.65;;;;;;;4.78;48.25;101421.28;5096508;28;20436;-68
2022/01/13 05:47:59;;;;;;;6.82;3.28;;;;;;;4.70;49.51;101414.47;5095300;28;20020;-68
2022/01/13 05:50:25;;;;;;;7.85;3.80;;;;;;;4.62;49.17;101423.38;5095389;28;20031;-69
2022/01/13 05:52:51;;;;;;;9.77;3.92;;;;;;;4.64;49.38;101421.19;5095414;28;20085;-69
2022/01/13 05:55:18;;;;;;;8.88;4.20;;;;;;;4.59;49.20;101413.78;5095612;28;20020;-68
2022/01/13 05:57:44;;;;;;;6.10;3.65;;;;;;;4.46;50.12;101414.47;5095423;28;20028;-69
2022/01/13 06:00:12;;;;;;;12.25;3.25;;;;;;;4.56;50.43;101428.13;5093750;28;20059;-68
2022/01/13 06:02:38;;;;;;;6.57;3.88;;;;;;;4.54;48.27;101430.38;5095314;28;20440;-68
2022/01/13 06:05:05;;;;;;;7.15;3.30;;;;;;;4.59;47.25;101405.50;5095259;28;20032;-68
2022/01/13 06:07:31;;;;;;;9.23;5.07;;;;;;;4.79;47.05;101428.44;5095545;28;20031;-68
2022/01/13 06:09:56;;;;;;;5.22;3.00;;;;;;;4.84;47.88;101439.41;5096099;28;20032;-68
2022/01/13 06:12:32;;;;;;;8.18;4.20;;;;;;;4.73;48.92;101431.25;5094978;28;20034;-68
2022/01/13 06:15:02;;;;;;;5.05;2.85;;;;;;;4.66;48.90;101441.00;5094587;28;20048;-68
2022/01/13 06:17:28;;;;;;;6.75;3.97;;;;;;;4.79;47.69;101433.94;5094915;28;20027;-69
2022/01/13 06:19:55;;;;;;;8.70;4.85;;;;;;;4.93;48.02;101438.47;5095755;28;20028;-70
2022/01/13 06:22:22;;;;;;;8.75;4.40;;;;;;;4.88;47.74;101443.22;5096417;28;20197;-67
2022/01/13 06:24:52;;;;;;;3.55;2.38;;;;;;;4.77;48.49;101449.97;5094787;28;20085;-69
2022/01/13 06:27:25;;;;;;;10.50;3.58;;;;;;;4.81;47.14;101415.19;5096139;28;20024;-69
2022/01/13 06:29:58;;;;;;;3.80;3.00;;;;;;;4.89;48.24;101445.69;5094857;28;20450;-69
2022/01/13 06:32:25;;;;;;;7.22;3.33;;;;;;;4.86;49.23;101445.47;5095539;28;20266;-70
2022/01/13 06:34:51;;;;;;;4.18;2.67;;;;;;;5.15;48.24;101453.66;5096402;28;20089;-69
2022/01/13 06:37:17;;;;;;;4.70;2.92;;;;;;;5.50;47.50;101447.66;5096236;28;20024;-70
2022/01/13 06:39:44;;;;;;;5.88;3.70;;;;;;;5.89;47.32;101452.03;5095284;28;20181;-70
2022/01/13 06:42:09;;;;;;;7.03;5.05;;;;;;;6.29;47.04;101450.56;5095259;28;20028;-69
2022/01/13 06:44:35;;;;;;;9.10;6.25;;;;;;;6.64;45.87;101448.28;5094444;28;20368;-70
2022/01/13 06:47:04;;;;;;;13.90;4.35;;;;;;;6.80;44.99;101448.78;5094497;28;20082;-70
2022/01/13 06:49:32;;;;;;;6.25;4.30;;;;;;;7.09;44.28;101456.81;5094352;28;20063;-69
2022/01/13 06:52:07;;;;;;;5.13;2.97;;;;;;;7.12;43.46;101464.47;5095834;28;20028;-69
2022/01/13 06:54:33;;;;;;;4.75;2.80;;;;;;;7.55;43.47;101453.03;5094462;28;20039;-68
2022/01/13 06:56:59;;;;;;;5.65;3.53;;;;;;;7.96;43.85;101454.84;5094393;28;20408;-71
2022/01/13 06:59:30;;;;;;;5.25;2.97;;;;;;;7.88;41.32;101461.94;5094351;28;20143;-69
2022/01/13 07:02:00;;;;;;;3.60;2.85;;;;;;;8.55;42.42;101464.72;5095138;28;20062;-69
2022/01/13 07:04:34;;;;;;;11.25;4.93;;;;;;;9.13;41.34;101460.91;5093985;28;20471;-69
2022/01/13 07:06:59;;;;;;;;;;;;;;;9.74;39.76;101471.28;5094729;28;20454;-70
2022/01/13 07:09:25;;;;;;;7.50;3.30;;;;;;;9.58;37.60;101473.72;5093619;28;19930;-70
2022/01/13 07:11:51;;;;;;;8.27;3.92;;;;;;;10.19;36.70;101480.94;5095230;28;20032;-69
2022/01/13 07:14:20;;;;;;;16.92;5.75;;;;;;;10.38;37.78;101471.44;5094766;28;20048;-70
2022/01/13 07:16:50;;;;;;;8.68;3.95;;;;;;;10.15;35.95;101476.38;5095426;28;20030;-69
2022/01/13 07:19:28;;;;;;;9.02;2.90;;;;;;;9.60;36.19;101432.56;5094226;28;20024;-68
2022/01/13 07:21:57;;;;;;;6.53;3.25;;;;;;;9.32;36.81;101480.06;5094156;28;20035;-69
2022/01/13 07:24:23;;;;;;;6.20;3.35;;;;;;;9.51;35.97;101470.63;5094719;28;20054;-69
2022/01/13 07:26:48;;;;;;;4.35;3.63;;;;;;;10.22;35.11;101477.50;5093608;28;20537;-69
2022/01/13 07:29:14;;;;;;;10.88;4.75;;;;;;;10.60;34.97;101459.28;5093639;28;20028;-69
2022/01/13 07:31:40;;;;;;;18.70;12.25;;;;;;;11.25;34.96;101458.84;5093554;28;20023;-69
2022/01/13 07:34:06;;;;;;;21.90;10.65;;;;;;;10.52;33.77;101469.31;5093534;28;20036;-70
2022/01/13 07:36:33;;;;;;;14.23;6.90;;;;;;;9.81;34.79;101472.47;5110472;28;20077;-69
2022/01/13 07:38:59;;;;;;;16.88;7.95;;;;;;;10.30;33.96;101489.00;5076551;28;20130;-69
2022/01/13 07:41:25;;;;;;;17.30;8.32;;;;;;;9.81;35.68;101489.13;5094651;28;20052;-69
2022/01/13 07:43:54;;;;;;;9.50;5.10;;;;;;;9.56;36.58;101487.13;5094500;28;20035;-69
2022/01/13 07:46:24;;;;;;;9.45;5.60;;;;;;;9.36;37.46;101492.16;5094602;28;20532;-69
2022/01/13 07:48:51;;;;;;;4.78;3.13;;;;;;;9.00;37.54;101497.09;5093530;28;20028;-69
2022/01/13 07:51:17;;;;;;;11.93;5.75;;;;;;;8.52;38.82;101501.44;5093125;28;20058;-69
2022/01/13 07:53:42;;;;;;;7.03;2.60;;;;;;;9.34;37.09;101486.13;5094048;28;20052;-69
2022/01/13 07:56:08;;;;;;;10.38;4.65;;;;;;;9.50;36.75;101480.09;5092991;28;20028;-70
2022/01/13 07:58:35;;;;;;;9.15;4.93;;;;;;;9.35;36.92;101493.31;5093285;28;20028;-68
2022/01/13 08:01:01;;;;;;;7.07;4.47;;;;;;;9.94;35.99;101499.28;5093052;28;20057;-69
2022/01/13 08:03:27;;;;;;;17.38;9.20;;;;;;;10.88;34.74;101502.28;5093003;28;20032;-70
2022/01/13 08:05:52;;;;;;;12.77;7.05;;;;;;;11.95;33.71;101498.25;5093171;28;20484;-70
2022/01/13 08:08:18;;;;;;;9.52;5.47;;;;;;;12.33;32.20;101509.25;5092888;28;20024;-68
2022/01/13 08:10:43;;;;;;;14.50;7.75;;;;;;;12.83;31.32;101507.41;5092683;28;20065;-68
2022/01/13 08:13:09;;;;;;;18.38;10.60;;;;;;;13.35;31.02;101510.41;5093762;28;20028;-68
2022/01/13 08:15:35;;;;;;;16.60;10.18;;;;;;;13.70;29.34;101514.72;5093504;28;20051;-69
2022/01/13 08:20:45;;;;;;;11.05;6.78;;;;;;;12.55;29.68;101532.34;5094240;28;20035;-69
2022/01/13 08:23:12;;;;;;;7.15;3.70;;;;;;;11.49;29.62;101518.69;5091735;28;20401;-68
2022/01/13 08:25:38;;;;;;;6.38;3.72;;;;;;;11.40;29.61;101538.28;5092568;28;20024;-69
2022/01/13 08:28:05;;;;;;;8.13;5.70;;;;;;;11.57;30.44;101542.94;5092400;28;20116;-68
2022/01/13 08:30:31;;;;;;;7.32;4.22;;;;;;;12.48;29.28;101532.09;5092669;28;20073;-68
2022/01/13 08:32:56;;;;;;;11.27;5.30;;;;;;;13.06;29.27;101530.97;5094061;28;20040;-68
2022/01/13 08:35:22;;;;;;;5.68;4.47;;;;;;;12.39;29.25;101540.53;5092584;28;20028;-69
2022/01/13 08:37:48;;;;;;;6.03;3.88;;;;;;;12.46;29.33;101524.03;5092452;28;20024;-69
2022/01/13 08:40:14;;;;;;;7.80;4.55;;;;;;;13.25;28.47;101529.63;5093429;28;20025;-69
2022/01/13 08:42:41;;;;;;;4.88;3.63;;;;;;;12.41;28.78;101538.25;5092590;28;20024;-69
2022/01/13 08:45:09;;;;;;;10.52;4.25;;;;;;;12.15;29.79;101523.69;5092491;28;20126;-69
2022/01/13 08:47:35;;;;;;;29.58;19.58;;;;;;;11.00;31.12;101535.81;5093608;28;20028;-70
2022/01/13 08:50:01;;;;;;;5.72;2.88;;;;;;;10.07;33.11;101541.16;5092756;28;20375;-69
2022/01/13 08:52:27;;;;;;;7.90;4.70;;;;;;;10.18;33.64;101531.34;5092733;28;20024;-68
2022/01/13 08:54:55;;;;;;;9.13;4.50;;;;;;;10.15;34.23;101543.13;5075835;28;20085;-68
2022/01/13 08:57:21;;;;;;;8.32;5.82;;;;;;;10.64;32.41;101540.97;5092823;28;20432;-68
2022/01/13 08:59:47;;;;;;;5.70;2.55;;;;;;;10.16;32.33;101530.84;5092479;28;20020;-68
2022/01/13 09:02:13;;;;;;;8.13;3.67;;;;;;;10.10;32.64;101537.72;5092355;28;20032;-68
2022/01/13 09:04:39;;;;;;;5.38;3.40;;;;;;;10.10;32.44;101532.16;5092906;28;20123;-68
2022/01/13 09:07:05;;;;;;;6.22;2.63;;;;;;;10.27;33.18;101543.31;5092347;28;20028;-68
2022/01/13 09:09:31;;;;;;;10.45;4.78;;;;;;;10.96;31.26;101545.16;5092324;28;20140;-69
2022/01/13 09:11:56;;;;;;;11.98;4.72;;;;;;;11.02;30.43;101550.22;5092577;28;20043;-70
2022/01/13 09:14:25;;;;;;;10.15;5.18;;;;;;;11.07;31.28;101551.19;5092728;28;20052;-69
2022/01/13 09:16:54;;;;;;;5.40;2.78;;;;;;;10.76;32.40;101552.28;5092832;28;20024;-69
2022/01/13 09:19:20;;;;;;;8.70;3.65;;;;;;;11.02;31.80;101560.53;5092091;28;20085;-68
2022/01/13 09:21:48;;;;;;;13.10;7.40;;;;;;;11.16;31.27;101535.25;5092332;28;20028;-69
2022/01/13 09:24:18;;;;;;;3.47;2.88;;;;;;;11.16;29.65;101563.13;5075708;28;20103;-69
2022/01/13 09:26:45;;;;;;;18.38;10.40;;;;;;;10.29;33.99;101570.81;5092489;28;20020;-69
2022/01/13 09:29:11;;;;;;;10.02;6.75;;;;;;;11.07;32.33;101540.03;5093087;28;20056;-68
2022/01/13 09:31:40;;;;;;;9.30;4.65;;;;;;;11.72;29.91;101556.28;5093784;28;20081;-69
2022/01/13 09:34:07;;;;;;;10.90;7.60;;;;;;;12.30;29.99;101523.06;5092077;28;20044;-69
2022/01/13 09:36:33;;;;;;;13.68;8.25;;;;;;;12.98;29.25;101543.06;5096035;28;20352;-69
2022/01/13 09:39:02;;;;;;;15.48;8.18;;;;;;;12.86;28.39;101568.19;5095952;28;20481;-69
2022/01/13 09:41:32;;;;;;;8.55;4.88;;;;;;;13.08;28.44;101559.38;5096949;28;20031;-70
2022/01/13 09:44:00;;;;;;;10.18;5.88;;;;;;;13.73;28.39;101567.13;5096766;28;20182;-69
2022/01/13 09:46:27;;;;;;;15.93;8.07;;;;;;;13.72;28.52;101551.50;5097383;28;20374;-69
2022/01/13 09:48:55;;;;;;;8.65;5.07;;;;;;;13.89;27.58;101559.66;5095371;28;20098;-69
2022/01/13 09:51:27;;;;;;;8.98;4.43;;;;;;;13.96;27.15;101534.72;5095547;28;20032;-69
2022/01/13 09:53:53;;;;;;;7.30;3.97;;;;;;;13.73;26.93;101558.75;5095814;28;20472;-69
2022/01/13 09:56:19;;;;;;;7.93;5.03;;;;;;;14.07;27.85;101552.63;5095409;28;20028;-69
2022/01/13 09:58:45;;;;;;;12.15;5.75;;;;;;;14.07;27.64;101561.03;5096913;28;20488;-70
2022/01/13 10:01:14;;;;;;;35.58;25.67;;;;;;;14.08;26.93;101553.44;5095424;28;20028;-69
2022/01/13 10:03:41;;;;;;;27.45;15.20;;;;;;;13.90;27.19;101552.88;5079583;28;20028;-69
2022/01/13 10:06:12;;;;;;;15.57;6.30;;;;;;;14.14;27.25;101558.44;5095234;28;20063;-70
2022/01/13 10:08:54;;;;;;;13.02;4.63;;;;;;;14.25;26.85;101543.94;5096508;28;20028;-69
2022/01/13 10:11:32;;;;;;;11.90;5.93;;;;;;;13.77;26.81;101556.88;5096124;28;20027;-70
2022/01/13 10:16:55;;;;;;;22.48;14.02;;;;;;;13.33;26.35;101537.91;5096334;28;20036;-71
2022/01/13 10:19:30;;;;;;;15.85;6.82;;;;;;;11.99;28.23;101538.25;5094795;28;20478;-68
2022/01/13 10:22:08;;;;;;;8.63;4.60;;;;;;;11.90;27.39;101556.22;5095119;28;20367;-69
2022/01/13 10:24:36;;;;;;;6.10;3.70;;;;;;;11.37;29.13;101552.88;5096043;28;20032;-67
2022/01/13 10:27:10;;;;;;;6.75;3.20;;;;;;;11.30;30.58;101560.94;5094938;28;20479;-70
2022/01/13 10:29:44;;;;;;;8.27;5.32;;;;;;;10.85;29.23;101539.13;5095121;28;20054;-70
2022/01/13 10:32:12;;;;;;;10.25;5.78;;;;;;;11.09;28.99;101562.81;5095029;28;20031;-70
2022/01/13 10:34:41;;;;;;;8.57;3.58;;;;;;;10.95;27.95;101583.31;5096084;28;20096;-68
2022/01/13 10:37:27;;;;;;;11.07;4.93;;;;;;;11.38;28.19;101560.06;5094544;28;20142;-67
2022/01/13 10:40:18;;;;;;;6.55;4.38;;;;;;;11.00;28.82;101563.66;5095722;28;20062;-69
2022/01/13 10:45:31;;;;;;;9.02;5.13;;;;;;;11.35;28.32;101552.41;5095794;28;20039;-70
2022/01/13 10:48:08;;;;;;;22.42;10.05;;;;;;;11.50;28.00;101551.84;5093960;28;20063;-70
2022/01/13 10:50:41;;;;;;;15.25;10.50;;;;;;;11.82;27.75;101554.28;5094316;28;20069;-70
2022/01/13 10:53:16;;;;;;;10.68;6.70;;;;;;;12.06;27.48;101535.72;5094293;28;20077;-70
2022/01/13 10:55:45;;;;;;;7.55;3.53;;;;;;;11.89;28.37;101543.44;5095433;28;20066;-69
2022/01/13 10:58:14;;;;;;;4.20;2.80;;;;;;;10.89;29.24;101562.38;5094366;28;20028;-68
2022/01/13 11:00:41;;;;;;;6.55;3.15;;;;;;;11.04;29.47;101541.53;5094116;28;20039;-68
2022/01/13 11:03:12;;;;;;;7.85;3.72;;;;;;;11.57;28.32;101550.47;5093904;28;20028;-69
2022/01/13 11:05:40;;;;;;;7.22;4.07;;;;;;;11.89;28.38;101535.88;5096053;28;20032;-68
2022/01/13 11:08:07;;;;;;;10.13;6.75;;;;;;;11.98;27.44;101539.41;5077216;28;20068;-68
2022/01/13 11:10:35;;;;;;;3.60;2.55;;;;;;;11.30;28.34;101538.66;5095521;28;20467;-68
2022/01/13 11:13:04;;;;;;;3.60;3.20;;;;;;;11.33;28.78;101535.19;5095181;28;20464;-68
2022/01/13 11:15:30;;;;;;;3.92;2.53;;;;;;;10.79;26.52;101543.25;5094201;28;20064;-68
2022/01/13 11:17:58;;;;;;;8.98;3.60;;;;;;;11.07;27.16;101518.56;5093748;28;20505;-68
2022/01/13 11:20:25;;;;;;;22.50;11.77;;;;;;;10.93;26.60;101529.94;5093608;28;20035;-68
2022/01/13 11:22:54;;;;;;;15.50;12.35;;;;;;;10.87;27.72;101500.66;5094234;28;20024;-68
2022/01/13 11:25:23;;;;;;;5.70;3.45;;;;;;;10.62;30.08;101512.66;5095349;28;20085;-68
2022/01/13 11:27:50;;;;;;;11.18;5.82;;;;;;;10.88;29.55;101502.28;5094846;28;20024;-67
2022/01/13 11:30:22;;;;;;;5.28;3.33;;;;;;;10.66;30.55;101522.81;5095026;28;20028;-69
2022/01/13 11:32:48;;;;;;;12.85;3.30;;;;;;;10.46;32.04;101501.25;5093419;28;20485;-67
2022/01/13 11:35:20;;;;;;;4.40;3.70;;;;;;;10.04;32.62;101475.06;5093463;28;20028;-68
2022/01/13 11:37:46;;;;;;;3.78;2.28;;;;;;;10.37;29.75;101509.59;5093328;28;20111;-68
2022/01/13 11:40:27;;;;;;;7.10;4.32;;;;;;;10.20;30.12;101481.75;5093188;28;20028;-67
2022/01/13 11:42:54;;;;;;;5.47;3.00;;;;;;;10.47;31.19;101495.34;5094387;28;20081;-68
2022/01/13 11:45:21;;;;;;;6.88;3.42;;;;;;;10.34;31.37;101510.25;5095818;28;20053;-70
2022/01/13 11:47:47;;;;;;;5.18;2.85;;;;;;;10.24;31.10;101507.81;5079181;28;20065;-67
2022/01/13 11:50:19;;;;;;;8.85;3.13;;;;;;;10.05;31.41;101504.50;5093225;28;20047;-68
2022/01/13 11:52:53;;;;;;;7.38;3.42;;;;;;;10.18;31.06;101521.03;5093736;28;20028;-68
2022/01/13 11:55:27;;;;;;;6.75;2.80;;;;;;;9.84;32.13;101454.28;5093858;28;20040;-67
2022/01/13 11:58:15;;;;;;;2.92;2.05;;;;;;;10.08;31.40;101503.88;5092575;28;20387;-68